Doucette, Texas
Current Conditions -  °F | °C
As of 6:15 AM on Thursday 18 Dec 2014 (Local Time) from KJAS Reporting Station
Moderate Rain Moderate Rain  
Wind Chill: 53°   Ceiling: 1200
Heat Index: 53°   Visibility: 10mi
Dew Point: 48°   Wind: 0mph
Humidity: 82%   Direction: NA
Pressure: 30.11"   Gusts: NA
Location:  30.82°N, 94.43°W
Report Text: KJAS 181215Z AUTO 00000KT 10SM RA OVC012 12/09 A3011 RMK AO2 T01170087
Loading
Personal Weather Stations






























Interactive Weather Map New forecast layout! Learn more

10-Day Weather Forecast

Advertisements
Track Severe Weather on mobile